createdAt,value
2016-08-11T00:00:55.099Z,0
2016-08-11T00:01:54.422Z,0
2016-08-11T00:02:54.454Z,0
2016-08-11T00:03:53.746Z,0
2016-08-11T00:04:53.778Z,0
2016-08-11T00:05:55.217Z,0
2016-08-11T00:06:53.820Z,0
2016-08-11T00:07:53.840Z,0
2016-08-11T00:08:53.863Z,0
2016-08-11T00:09:53.889Z,0
2016-08-11T00:10:53.905Z,0
2016-08-11T00:11:54.675Z,0
2016-08-11T00:12:54.689Z,0
2016-08-11T00:13:53.974Z,0
2016-08-11T00:14:54.709Z,0
2016-08-11T00:15:54.036Z,0
2016-08-11T00:16:54.758Z,0
2016-08-11T00:17:54.785Z,0
2016-08-11T00:18:55.514Z,0
2016-08-11T00:19:54.138Z,0
2016-08-11T00:20:54.853Z,0
2016-08-11T00:21:54.176Z,0
2016-08-11T00:22:54.892Z,0
2016-08-11T00:23:54.229Z,0
2016-08-11T00:24:54.232Z,0
2016-08-11T00:25:54.260Z,0
2016-08-11T00:26:54.277Z,0
2016-08-11T00:27:54.298Z,0
2016-08-11T00:28:54.335Z,0
2016-08-11T00:29:54.347Z,0
2016-08-11T00:30:55.093Z,0
2016-08-11T00:31:55.116Z,0
2016-08-11T00:32:55.122Z,0
2016-08-11T00:33:54.444Z,0
2016-08-11T00:34:55.191Z,0
2016-08-11T00:35:55.205Z,0
2016-08-11T00:36:54.508Z,0
2016-08-11T00:37:54.529Z,0
2016-08-11T00:38:54.552Z,0
2016-08-11T00:39:54.603Z,0
2016-08-11T00:40:54.598Z,0
2016-08-11T00:41:54.632Z,0
2016-08-11T00:42:54.668Z,0
2016-08-11T00:43:54.675Z,0
2016-08-11T00:44:54.701Z,0
2016-08-11T00:45:55.432Z,0
2016-08-11T00:46:55.451Z,0
2016-08-11T00:47:54.762Z,0
2016-08-11T00:48:55.498Z,0
2016-08-11T00:49:54.861Z,0
2016-08-11T00:50:55.547Z,0
2016-08-11T00:51:54.854Z,0
2016-08-11T00:52:54.882Z,0
2016-08-11T00:53:54.901Z,0
2016-08-11T00:54:54.946Z,0
2016-08-11T00:55:55.653Z,0
2016-08-11T00:56:54.971Z,0
2016-08-11T00:57:54.996Z,0
2016-08-11T00:58:55.020Z,0
2016-08-11T00:59:55.052Z,0
2016-08-11T01:00:56.490Z,0
2016-08-11T01:01:55.089Z,0
2016-08-11T01:02:56.539Z,0
2016-08-11T01:03:55.146Z,0
2016-08-11T01:04:55.161Z,0
2016-08-11T01:05:55.899Z,0
2016-08-11T01:06:57.349Z,0
2016-08-11T01:07:55.954Z,0
2016-08-11T01:08:55.245Z,0
2016-08-11T01:09:55.274Z,0
2016-08-11T01:10:56.009Z,0
2016-08-11T01:11:55.324Z,0
2016-08-11T01:12:55.347Z,0
2016-08-11T01:13:55.378Z,0
2016-08-11T01:14:55.393Z,0
2016-08-11T01:15:55.411Z,0
2016-08-11T01:16:55.439Z,0
2016-08-11T01:17:55.462Z,0
2016-08-11T01:18:56.189Z,0
2016-08-11T01:19:55.503Z,0
2016-08-11T01:20:55.529Z,0
2016-08-11T01:21:55.555Z,0
2016-08-11T01:22:55.568Z,0
2016-08-11T01:23:56.328Z,0
2016-08-11T01:24:56.330Z,0
2016-08-11T01:25:55.660Z,0
2016-08-11T01:26:55.669Z,0
2016-08-11T01:27:55.694Z,0
2016-08-11T01:28:57.139Z,0
2016-08-11T01:29:56.476Z,0
2016-08-11T01:30:55.767Z,0
2016-08-11T01:31:56.513Z,0
2016-08-11T01:32:55.804Z,0
2016-08-11T01:33:55.833Z,0
2016-08-11T01:34:56.566Z,0
2016-08-11T01:35:56.587Z,0
2016-08-11T01:36:55.897Z,0
2016-08-11T01:37:55.917Z,0
2016-08-11T01:38:56.658Z,0
2016-08-11T01:39:55.992Z,0
2016-08-11T01:41:10.881Z,0
2016-08-11T01:41:56.034Z,0
2016-08-11T01:42:56.038Z,0
2016-08-11T01:43:56.768Z,0
2016-08-11T01:44:56.094Z,0
2016-08-11T01:45:56.840Z,0
2016-08-11T01:46:56.857Z,0
2016-08-11T01:47:56.866Z,0
2016-08-11T01:48:56.174Z,0
2016-08-11T01:49:56.251Z,0
2016-08-11T01:50:56.215Z,0
2016-08-11T01:51:56.247Z,0
2016-08-11T01:52:56.266Z,0
2016-08-11T01:53:56.286Z,0
2016-08-11T01:54:57.078Z,0
2016-08-11T01:55:57.754Z,0
2016-08-11T01:56:57.076Z,0
2016-08-11T01:57:56.384Z,0
2016-08-11T01:58:56.404Z,0
2016-08-11T01:59:56.423Z,0
2016-08-11T02:00:56.481Z,0
2016-08-11T02:01:56.482Z,0
2016-08-11T02:02:56.489Z,0
2016-08-11T02:03:57.241Z,0
2016-08-11T02:04:57.252Z,0
2016-08-11T02:05:57.984Z,0
2016-08-11T02:06:56.587Z,0
2016-08-11T02:07:56.609Z,0
2016-08-11T02:08:56.636Z,0
2016-08-11T02:09:56.660Z,0
2016-08-11T02:10:56.674Z,0
2016-08-11T02:11:57.406Z,0
2016-08-11T02:12:56.726Z,0
2016-08-11T02:13:57.455Z,0
2016-08-11T02:14:56.771Z,0
2016-08-11T02:15:56.817Z,0
2016-08-11T02:16:56.821Z,0
2016-08-11T02:17:57.571Z,0
2016-08-11T02:18:57.583Z,0
2016-08-11T02:19:58.302Z,0
2016-08-11T02:20:56.901Z,0
2016-08-11T02:21:56.936Z,0
2016-08-11T02:22:56.949Z,0
2016-08-11T02:23:57.690Z,0
2016-08-11T02:24:56.990Z,0
2016-08-11T02:25:57.729Z,0
2016-08-11T02:26:57.039Z,0
2016-08-11T02:27:57.793Z,0
2016-08-11T02:28:57.088Z,0
2016-08-11T02:29:57.816Z,0
2016-08-11T02:30:57.133Z,0
2016-08-11T02:31:57.153Z,0
2016-08-11T02:32:57.927Z,0
2016-08-11T02:33:57.205Z,0
2016-08-11T02:34:57.230Z,0
2016-08-11T02:35:57.249Z,0
2016-08-11T02:36:57.266Z,0
2016-08-11T02:37:57.306Z,0
2016-08-11T02:38:58.729Z,0
2016-08-11T02:39:58.765Z,0
2016-08-11T02:40:58.084Z,0
2016-08-11T02:41:57.381Z,0
2016-08-11T02:42:58.121Z,0
2016-08-11T02:43:57.428Z,0
2016-08-11T02:44:58.161Z,0
2016-08-11T02:45:57.475Z,0
2016-08-11T02:46:57.503Z,0
2016-08-11T02:47:57.533Z,0
2016-08-11T02:48:57.557Z,0
2016-08-11T02:49:57.635Z,0
2016-08-11T02:50:57.591Z,0
2016-08-11T02:51:57.620Z,0
2016-08-11T02:52:57.637Z,0
2016-08-11T02:53:58.366Z,0
2016-08-11T02:54:57.690Z,0
2016-08-11T02:55:58.424Z,0
2016-08-11T02:56:57.724Z,0
2016-08-11T02:57:57.747Z,0
2016-08-11T02:58:57.843Z,0
2016-08-11T02:59:57.796Z,0
2016-08-11T03:00:57.815Z,0
2016-08-11T03:01:57.840Z,0
2016-08-11T03:02:57.860Z,0
2016-08-11T03:03:57.883Z,0
2016-08-11T03:04:57.923Z,0
2016-08-11T03:05:58.645Z,0
2016-08-11T03:06:57.963Z,0
2016-08-11T03:07:59.401Z,0
2016-08-11T03:08:58.700Z,0
2016-08-11T03:09:58.026Z,0
2016-08-11T03:10:58.046Z,0
2016-08-11T03:12:00.196Z,0
2016-08-11T03:12:58.812Z,0
2016-08-11T03:13:58.129Z,0
2016-08-11T03:14:58.844Z,0
2016-08-11T03:16:13.757Z,0
2016-08-11T03:16:58.174Z,0
2016-08-11T03:17:58.928Z,0
2016-08-11T03:18:59.649Z,0
2016-08-11T03:19:58.262Z,0
2016-08-11T03:20:58.287Z,0
2016-08-11T03:21:58.304Z,0
2016-08-11T03:22:58.315Z,0
2016-08-11T03:23:58.333Z,0
2016-08-11T03:24:58.358Z,0
2016-08-11T03:25:59.118Z,0
2016-08-11T03:26:59.140Z,0
2016-08-11T03:27:58.421Z,0
2016-08-11T03:28:58.526Z,0
2016-08-11T03:29:58.476Z,0
2016-08-11T03:30:59.207Z,0
2016-08-11T03:31:59.240Z,0
2016-08-11T03:32:59.251Z,0
2016-08-11T03:33:59.978Z,0
2016-08-11T03:34:58.584Z,0
2016-08-11T03:35:58.606Z,0
2016-08-11T03:36:58.630Z,0
2016-08-11T03:37:58.679Z,0
2016-08-11T03:38:58.679Z,0
2016-08-11T03:39:58.700Z,0
2016-08-11T03:40:58.738Z,0
2016-08-11T03:41:58.753Z,0
2016-08-11T03:42:59.500Z,0
2016-08-11T03:43:58.836Z,0
2016-08-11T03:44:59.531Z,0
2016-08-11T03:45:59.542Z,0
2016-08-11T03:46:59.567Z,0
2016-08-11T03:47:59.584Z,0
2016-08-11T03:48:58.906Z,0
2016-08-11T03:49:58.929Z,0
2016-08-11T03:50:59.657Z,0
2016-08-11T03:52:01.096Z,0
2016-08-11T03:52:58.990Z,0
2016-08-11T03:53:59.023Z,0
2016-08-11T03:54:59.751Z,0
2016-08-11T03:55:59.062Z,0
2016-08-11T03:56:59.083Z,0
2016-08-11T03:57:59.855Z,0
2016-08-11T03:58:59.203Z,0
2016-08-11T03:59:59.156Z,0
2016-08-11T04:00:59.190Z,0
2016-08-11T04:01:59.195Z,0
2016-08-11T04:02:59.946Z,0
2016-08-11T04:03:59.960Z,0
2016-08-11T04:04:59.265Z,0
2016-08-11T04:05:59.291Z,0
2016-08-11T04:07:00.033Z,0
2016-08-11T04:07:59.338Z,0
2016-08-11T04:08:59.355Z,0
2016-08-11T04:09:59.376Z,0
2016-08-11T04:11:00.832Z,0
2016-08-11T04:12:00.133Z,0
2016-08-11T04:12:59.450Z,0
2016-08-11T04:13:59.535Z,0
2016-08-11T04:14:59.499Z,0
2016-08-11T04:15:59.519Z,0
2016-08-11T04:16:59.532Z,0
2016-08-11T04:18:00.267Z,0
2016-08-11T04:18:59.575Z,0
2016-08-11T04:19:59.641Z,0
2016-08-11T04:21:00.352Z,0
2016-08-11T04:21:59.651Z,0
2016-08-11T04:23:00.383Z,0
2016-08-11T04:23:59.704Z,0
2016-08-11T04:25:00.435Z,0
2016-08-11T04:25:59.734Z,0
2016-08-11T04:26:59.765Z,0
2016-08-11T04:28:00.535Z,0
2016-08-11T04:30:00.532Z,0
2016-08-11T04:30:59.848Z,0
2016-08-11T04:31:59.892Z,0
2016-08-11T04:32:59.900Z,0
2016-08-11T04:34:00.620Z,0
2016-08-11T04:34:59.954Z,0
2016-08-11T04:36:00.696Z,0
2016-08-11T04:36:59.990Z,0
2016-08-11T04:38:00.013Z,0
2016-08-11T04:39:00.743Z,0
2016-08-11T04:40:00.065Z,0
2016-08-11T04:41:00.780Z,0
2016-08-11T04:42:00.095Z,0
2016-08-11T04:43:00.119Z,0
2016-08-11T04:44:00.906Z,0
2016-08-11T04:45:00.165Z,0
2016-08-11T04:46:00.191Z,0
2016-08-11T04:47:00.917Z,0
2016-08-11T04:48:00.231Z,0
2016-08-11T04:49:00.960Z,0
2016-08-11T04:50:00.329Z,0
2016-08-11T04:51:01.007Z,0
2016-08-11T04:52:00.348Z,0
2016-08-11T04:53:00.351Z,0
2016-08-11T04:54:00.377Z,0
2016-08-11T04:55:00.391Z,0
2016-08-11T04:56:00.404Z,0
2016-08-11T04:57:00.432Z,0
2016-08-11T04:58:00.453Z,0
2016-08-11T05:00:00.498Z,0
2016-08-11T05:01:01.231Z,0
2016-08-11T05:02:01.270Z,0
2016-08-11T05:03:00.569Z,0
2016-08-11T05:04:00.590Z,0
2016-08-11T05:05:00.614Z,0
2016-08-11T05:06:01.353Z,0
2016-08-11T05:07:00.652Z,0
2016-08-11T05:08:00.692Z,0
2016-08-11T05:09:01.421Z,0
2016-08-11T05:10:01.434Z,0
2016-08-11T05:11:00.744Z,0
2016-08-11T05:12:00.773Z,0
2016-08-11T05:13:01.502Z,0
2016-08-11T05:15:00.843Z,0
2016-08-11T05:16:00.858Z,0
2016-08-11T05:17:00.885Z,0
2016-08-11T05:18:01.617Z,0
2016-08-11T05:19:01.636Z,0
2016-08-11T05:20:00.945Z,0
2016-08-11T05:21:02.410Z,0
2016-08-11T05:22:00.991Z,0
2016-08-11T05:23:01.010Z,0
2016-08-11T05:24:01.037Z,0
2016-08-11T05:25:01.771Z,0
2016-08-11T05:26:01.106Z,0
2016-08-11T05:27:01.102Z,0
2016-08-11T05:28:01.833Z,0
2016-08-11T05:30:01.179Z,0
2016-08-11T05:31:01.208Z,0
2016-08-11T05:32:01.213Z,0
2016-08-11T05:33:01.233Z,0
2016-08-11T05:34:01.259Z,0
2016-08-11T05:35:01.994Z,0
2016-08-11T05:36:01.301Z,0
2016-08-11T05:37:01.326Z,0
2016-08-11T05:38:01.355Z,0
2016-08-11T05:39:02.102Z,0
2016-08-11T05:40:01.431Z,0
2016-08-11T05:41:01.413Z,0
2016-08-11T05:42:01.447Z,0
2016-08-11T05:43:01.461Z,0
2016-08-11T05:45:01.506Z,0
2016-08-11T05:46:01.524Z,0
2016-08-11T05:47:01.565Z,0
2016-08-11T05:48:02.290Z,0
2016-08-11T05:49:02.298Z,0
2016-08-11T05:50:08.953Z,0
2016-08-11T05:51:02.352Z,0
2016-08-11T05:52:01.667Z,5
2016-08-11T05:53:01.688Z,5
2016-08-11T05:54:01.720Z,5
2016-08-11T05:55:01.735Z,5
2016-08-11T05:56:01.753Z,5
2016-08-11T05:57:01.779Z,5
2016-08-11T05:58:01.794Z,5
2016-08-11T05:59:02.533Z,5
2016-08-11T06:00:01.836Z,0
2016-08-11T06:01:01.864Z,5
2016-08-11T06:02:01.910Z,0
2016-08-11T06:03:01.929Z,0
2016-08-11T06:04:01.947Z,0
2016-08-11T06:05:01.969Z,0
2016-08-11T06:06:02.682Z,0
2016-08-11T06:07:01.998Z,0
2016-08-11T06:08:02.764Z,0
2016-08-11T06:09:02.758Z,0
2016-08-11T06:10:02.074Z,0
2016-08-11T06:11:02.090Z,0
2016-08-11T06:12:02.116Z,0
2016-08-11T06:13:02.142Z,0
2016-08-11T06:14:02.157Z,0
2016-08-11T06:15:02.180Z,0
2016-08-11T06:16:02.214Z,0
2016-08-11T06:17:02.223Z,0
2016-08-11T06:18:02.250Z,0
2016-08-11T06:19:02.289Z,0
2016-08-11T06:20:02.292Z,0
2016-08-11T06:21:02.322Z,0
2016-08-11T06:22:02.338Z,0
2016-08-11T06:23:02.365Z,0
2016-08-11T06:24:03.122Z,5
2016-08-11T06:25:02.422Z,5
2016-08-11T06:26:02.430Z,0
2016-08-11T06:27:02.459Z,0
2016-08-11T06:28:03.893Z,0
2016-08-11T06:29:02.505Z,5
2016-08-11T06:30:02.535Z,5
2016-08-11T06:31:03.258Z,5
2016-08-11T06:32:03.276Z,5
2016-08-11T06:33:02.593Z,10
2016-08-11T06:34:02.612Z,5
2016-08-11T06:35:02.633Z,5
2016-08-11T06:36:02.655Z,0
2016-08-11T06:37:02.680Z,0
2016-08-11T06:38:03.414Z,0
2016-08-11T06:39:04.145Z,0
2016-08-11T06:40:02.773Z,0
2016-08-11T06:41:02.787Z,0
2016-08-11T06:42:03.504Z,0
2016-08-11T06:43:02.821Z,0
2016-08-11T06:44:03.555Z,0
2016-08-11T06:45:02.861Z,0
2016-08-11T06:46:02.888Z,0
2016-08-11T06:47:02.911Z,0
2016-08-11T06:48:03.647Z,0
2016-08-11T06:49:02.963Z,0
2016-08-11T06:50:02.985Z,0
2016-08-11T06:51:04.671Z,0
2016-08-11T06:52:03.034Z,0
2016-08-11T06:53:03.775Z,0
2016-08-11T06:54:03.786Z,0
2016-08-11T06:55:03.110Z,0
2016-08-11T06:56:03.831Z,0
2016-08-11T06:57:03.152Z,0
2016-08-11T06:58:03.185Z,0
2016-08-11T06:59:04.609Z,0
2016-08-11T07:00:03.924Z,0
2016-08-11T07:01:04.673Z,0
2016-08-11T07:02:03.262Z,0
2016-08-11T07:03:03.289Z,0
2016-08-11T07:04:03.313Z,5
2016-08-11T07:05:03.334Z,5
2016-08-11T07:06:03.378Z,5
2016-08-11T07:07:04.104Z,10
2016-08-11T07:08:03.402Z,10
2016-08-11T07:09:04.137Z,5
2016-08-11T07:10:03.448Z,5
2016-08-11T07:11:03.485Z,5
2016-08-11T07:12:03.502Z,0
2016-08-11T07:13:03.517Z,0
2016-08-11T07:14:04.255Z,0
2016-08-11T07:15:03.565Z,10
2016-08-11T07:16:03.591Z,10
2016-08-11T07:17:03.615Z,10
2016-08-11T07:18:04.354Z,10
2016-08-11T07:19:05.079Z,10
2016-08-11T07:20:03.689Z,10
2016-08-11T07:21:05.136Z,10
2016-08-11T07:22:03.753Z,10
2016-08-11T07:23:03.764Z,10
2016-08-11T07:24:04.495Z,10
2016-08-11T07:25:04.533Z,10
2016-08-11T07:26:03.823Z,10
2016-08-11T07:27:04.573Z,10
2016-08-11T07:28:03.877Z,10
2016-08-11T07:29:04.610Z,5
2016-08-11T07:30:03.921Z,5
2016-08-11T07:31:03.947Z,15
2016-08-11T07:32:05.409Z,15
2016-08-11T07:33:03.996Z,10
2016-08-11T07:34:04.725Z,10
2016-08-11T07:35:05.467Z,15
2016-08-11T07:36:04.791Z,15
2016-08-11T07:37:04.794Z,5
2016-08-11T07:38:04.128Z,5
2016-08-11T07:39:05.561Z,15
2016-08-11T07:40:04.161Z,15
2016-08-11T07:41:04.193Z,10
2016-08-11T07:42:04.219Z,15
2016-08-11T07:43:04.296Z,5
2016-08-11T07:44:04.314Z,10
2016-08-11T07:45:04.997Z,5
2016-08-11T07:46:04.308Z,5
2016-08-11T07:47:04.332Z,5
2016-08-11T07:48:05.065Z,5
2016-08-11T07:49:05.094Z,5
2016-08-11T07:50:05.134Z,0
2016-08-11T07:51:05.136Z,0
2016-08-11T07:52:04.723Z,0
2016-08-11T07:53:04.483Z,0
2016-08-11T07:54:04.501Z,0
2016-08-11T07:55:04.528Z,0
2016-08-11T07:56:05.322Z,0
2016-08-11T07:57:04.575Z,0
2016-08-11T07:58:04.608Z,0
2016-08-11T07:59:04.647Z,0
2016-08-11T08:00:04.726Z,0
2016-08-11T08:01:04.686Z,0
2016-08-11T08:02:04.699Z,0
2016-08-11T08:03:04.722Z,0
2016-08-11T08:04:05.456Z,0
2016-08-11T08:05:04.771Z,5
2016-08-11T08:06:04.792Z,5
2016-08-11T08:07:04.822Z,0
2016-08-11T08:08:05.811Z,0
2016-08-11T08:09:04.877Z,0
2016-08-11T08:10:04.893Z,0
2016-08-11T08:11:05.628Z,0
2016-08-11T08:12:05.652Z,0
2016-08-11T08:13:04.975Z,0
2016-08-11T08:14:06.411Z,0
2016-08-11T08:15:05.734Z,0
2016-08-11T08:16:05.041Z,5
2016-08-11T08:17:05.064Z,25
2016-08-11T08:18:05.832Z,20
2016-08-11T08:19:05.828Z,20
2016-08-11T08:20:05.132Z,20
2016-08-11T08:21:05.865Z,20
2016-08-11T08:22:05.207Z,20
2016-08-11T08:23:05.922Z,20
2016-08-11T08:24:05.258Z,20
2016-08-11T08:25:05.253Z,20
2016-08-11T08:26:05.994Z,20
2016-08-11T08:27:06.011Z,20
2016-08-11T08:28:06.060Z,20
2016-08-11T08:29:05.351Z,20
2016-08-11T08:30:06.097Z,20
2016-08-11T08:31:05.407Z,20
2016-08-11T08:32:05.423Z,20
2016-08-11T08:33:06.159Z,20
2016-08-11T08:34:05.468Z,5
2016-08-11T08:35:06.211Z,5
2016-08-11T08:36:05.525Z,5
2016-08-11T08:37:05.548Z,5
2016-08-11T08:38:05.575Z,5
2016-08-11T08:39:07.034Z,0
2016-08-11T08:40:05.618Z,0
2016-08-11T08:41:06.358Z,0
2016-08-11T08:42:05.676Z,0
2016-08-11T08:43:05.698Z,0
2016-08-11T08:44:05.719Z,0
2016-08-11T08:45:05.742Z,0
2016-08-11T08:46:06.474Z,0
2016-08-11T08:47:06.500Z,0
2016-08-11T08:48:06.520Z,0
2016-08-11T08:49:05.836Z,0
2016-08-11T08:50:06.570Z,0
2016-08-11T08:51:05.896Z,5
2016-08-11T08:52:05.929Z,15
2016-08-11T08:53:06.655Z,10
2016-08-11T08:54:06.670Z,20
2016-08-11T08:55:05.980Z,20
2016-08-11T08:56:06.012Z,20
2016-08-11T08:57:06.034Z,20
2016-08-11T08:58:07.489Z,20
2016-08-11T08:59:06.085Z,20
2016-08-11T09:00:06.128Z,20
2016-08-11T09:01:06.144Z,20
2016-08-11T09:02:06.152Z,20
2016-08-11T09:03:06.892Z,20
2016-08-11T09:04:06.200Z,5
2016-08-11T09:05:06.228Z,20
2016-08-11T09:06:06.250Z,25
2016-08-11T09:07:06.989Z,40
2016-08-11T09:08:06.301Z,50
2016-08-11T09:09:06.325Z,5
2016-08-11T09:10:07.063Z,5
2016-08-11T09:11:06.392Z,5
2016-08-11T09:12:06.403Z,5
2016-08-11T09:13:07.137Z,5
2016-08-11T09:14:07.157Z,5
2016-08-11T09:15:06.490Z,5
2016-08-11T09:16:07.224Z,0
2016-08-11T09:17:06.523Z,5
2016-08-11T09:18:07.254Z,5
2016-08-11T09:19:07.298Z,5
2016-08-11T09:20:06.596Z,5
2016-08-11T09:21:06.630Z,5
2016-08-11T09:22:06.650Z,5
2016-08-11T09:23:06.674Z,5
2016-08-11T09:24:06.719Z,5
2016-08-11T09:25:06.732Z,5
2016-08-11T09:26:08.167Z,20
2016-08-11T09:27:06.772Z,20
2016-08-11T09:28:07.506Z,20
2016-08-11T09:29:06.824Z,20
2016-08-11T09:30:06.848Z,20
2016-08-11T09:31:06.882Z,20
2016-08-11T09:32:07.610Z,20
2016-08-11T09:33:06.941Z,15
2016-08-11T09:34:06.964Z,10
2016-08-11T09:35:06.983Z,20
2016-08-11T09:36:07.706Z,20
2016-08-11T09:37:07.024Z,10
2016-08-11T09:38:07.763Z,5
2016-08-11T09:39:07.076Z,5
2016-08-11T09:40:07.104Z,5
2016-08-11T09:41:07.134Z,5
2016-08-11T09:42:08.574Z,5
2016-08-11T09:43:07.200Z,5
2016-08-11T09:44:08.614Z,5
2016-08-11T09:45:07.933Z,5
2016-08-11T09:46:07.268Z,5
2016-08-11T09:47:07.279Z,5
2016-08-11T09:48:08.034Z,5
2016-08-11T09:49:07.339Z,20
2016-08-11T09:50:07.349Z,10
2016-08-11T09:51:07.387Z,5
2016-08-11T09:52:07.408Z,5
2016-08-11T09:53:07.426Z,5
2016-08-11T09:54:08.163Z,5
2016-08-11T09:55:08.223Z,5
2016-08-11T09:56:08.938Z,0
2016-08-11T09:57:07.543Z,0
2016-08-11T09:58:07.556Z,0
2016-08-11T09:59:07.590Z,0
2016-08-11T10:00:08.319Z,5
2016-08-11T10:01:08.349Z,5
2016-08-11T10:02:07.655Z,5
2016-08-11T10:03:07.689Z,5
2016-08-11T10:04:07.722Z,5
2016-08-11T10:05:07.739Z,5
2016-08-11T10:06:07.757Z,5
2016-08-11T10:07:08.491Z,5
2016-08-11T10:08:07.815Z,5
2016-08-11T10:09:08.542Z,5
2016-08-11T10:10:07.856Z,5
2016-08-11T10:11:08.591Z,10
2016-08-11T10:12:07.916Z,20
2016-08-11T10:13:07.954Z,15
2016-08-11T10:14:07.975Z,15
2016-08-11T10:15:07.987Z,15
2016-08-11T10:16:08.016Z,15
2016-08-11T10:17:08.772Z,15
2016-08-11T10:18:08.784Z,15
2016-08-11T10:19:08.810Z,15
2016-08-11T10:20:08.831Z,15
2016-08-11T10:21:08.148Z,15
2016-08-11T10:22:08.166Z,15
2016-08-11T10:23:08.191Z,15
2016-08-11T10:24:08.231Z,20
2016-08-11T10:25:08.243Z,20
2016-08-11T10:26:08.290Z,20
2016-08-11T10:27:08.300Z,25
2016-08-11T10:28:08.332Z,30
2016-08-11T10:29:08.347Z,25
2016-08-11T10:30:08.380Z,25
2016-08-11T10:31:08.401Z,25
2016-08-11T10:32:08.423Z,20
2016-08-11T10:33:09.884Z,20
2016-08-11T10:34:09.192Z,20
2016-08-11T10:35:09.246Z,15
2016-08-11T10:36:09.264Z,15
2016-08-11T10:37:08.568Z,15
2016-08-11T10:38:08.597Z,5
2016-08-11T10:39:08.611Z,5
2016-08-11T10:40:09.362Z,20
2016-08-11T10:41:08.664Z,10
2016-08-11T10:42:08.690Z,20
2016-08-11T10:43:08.734Z,20
2016-08-11T10:44:08.748Z,15
2016-08-11T10:45:08.776Z,15
2016-08-11T10:46:08.819Z,15
2016-08-11T10:47:08.820Z,20
2016-08-11T10:48:08.853Z,15
2016-08-11T10:49:10.304Z,5
2016-08-11T10:50:09.625Z,5
2016-08-11T10:51:10.405Z,5
2016-08-11T10:52:08.982Z,5
2016-08-11T10:53:08.986Z,5
2016-08-11T10:54:09.019Z,5
2016-08-11T10:55:09.039Z,5
2016-08-11T10:56:09.064Z,5
2016-08-11T10:57:09.102Z,15
2016-08-11T10:58:09.123Z,10
2016-08-11T10:59:09.168Z,5
2016-08-11T11:00:09.888Z,5
2016-08-11T11:01:09.202Z,5
2016-08-11T11:02:09.941Z,5
2016-08-11T11:03:09.258Z,5
2016-08-11T11:04:09.285Z,5
2016-08-11T11:05:10.138Z,5
2016-08-11T11:06:09.340Z,5
2016-08-11T11:07:09.386Z,5
2016-08-11T11:08:09.400Z,5
2016-08-11T11:09:09.417Z,5
2016-08-11T11:10:09.451Z,5
2016-08-11T11:11:10.182Z,15
2016-08-11T11:12:09.504Z,15
2016-08-11T11:13:09.533Z,15
2016-08-11T11:14:09.548Z,15
2016-08-11T11:15:09.579Z,15
2016-08-11T11:16:09.615Z,15
2016-08-11T11:17:09.633Z,15
2016-08-11T11:18:09.669Z,15
2016-08-11T11:19:10.390Z,15
2016-08-11T11:20:09.713Z,15
2016-08-11T11:21:09.746Z,10
2016-08-11T11:22:09.764Z,15
2016-08-11T11:23:09.793Z,15
2016-08-11T11:24:11.240Z,10
2016-08-11T11:25:09.855Z,5
2016-08-11T11:26:09.871Z,5
2016-08-11T11:27:09.899Z,15
2016-08-11T11:28:10.634Z,15
2016-08-11T11:29:09.961Z,15
2016-08-11T11:30:09.986Z,15
2016-08-11T11:31:10.015Z,5
2016-08-11T11:32:10.743Z,5
2016-08-11T11:33:10.066Z,5
2016-08-11T11:34:10.289Z,5
2016-08-11T11:35:10.130Z,15
2016-08-11T11:36:10.139Z,15
2016-08-11T11:37:10.875Z,15
2016-08-11T11:38:10.904Z,15
2016-08-11T11:39:10.933Z,15
2016-08-11T11:40:10.975Z,5
2016-08-11T11:41:10.281Z,10
2016-08-11T11:42:10.303Z,15
2016-08-11T11:43:10.334Z,5
2016-08-11T11:44:11.670Z,5
2016-08-11T11:45:10.387Z,5
2016-08-11T11:46:10.455Z,5
2016-08-11T11:47:10.438Z,5
2016-08-11T11:48:10.481Z,5
2016-08-11T11:49:10.510Z,5
2016-08-11T11:50:10.521Z,5
2016-08-11T11:51:10.554Z,5
2016-08-11T11:52:12.019Z,5
2016-08-11T11:53:10.602Z,5
2016-08-11T11:54:10.623Z,10
2016-08-11T11:55:11.360Z,15
2016-08-11T11:56:11.395Z,5
2016-08-11T11:57:11.431Z,10
2016-08-11T11:58:10.737Z,15
2016-08-11T11:59:10.763Z,15
2016-08-11T12:00:10.785Z,15
2016-08-11T12:01:10.812Z,15
2016-08-11T12:02:12.409Z,5
2016-08-11T12:03:11.586Z,5
2016-08-11T12:04:11.600Z,5
2016-08-11T12:05:10.934Z,5
2016-08-11T12:06:10.961Z,5
2016-08-11T12:07:10.991Z,5
2016-08-11T12:08:11.005Z,5
2016-08-11T12:09:11.030Z,5
2016-08-11T12:10:11.054Z,5
2016-08-11T12:11:12.503Z,5
2016-08-11T12:12:11.114Z,5
2016-08-11T12:13:11.154Z,5
2016-08-11T12:14:11.176Z,5
2016-08-11T12:15:11.194Z,5
2016-08-11T12:16:11.931Z,5
2016-08-11T12:17:11.233Z,5
2016-08-11T12:18:11.268Z,5
2016-08-11T12:19:12.020Z,5
2016-08-11T12:20:11.325Z,5
2016-08-11T12:21:12.075Z,5
2016-08-11T12:22:11.388Z,5
2016-08-11T12:23:11.400Z,5
2016-08-11T12:24:11.451Z,5
2016-08-11T12:25:11.461Z,5
2016-08-11T12:26:11.496Z,5
2016-08-11T12:27:11.504Z,5
2016-08-11T12:28:11.531Z,15
2016-08-11T12:29:12.276Z,5
2016-08-11T12:30:12.298Z,5
2016-08-11T12:31:11.621Z,10
2016-08-11T12:32:11.639Z,10
2016-08-11T12:33:11.674Z,15
2016-08-11T12:34:11.694Z,15
2016-08-11T12:35:11.727Z,15
2016-08-11T12:36:11.747Z,15
2016-08-11T12:37:13.190Z,15
2016-08-11T12:38:11.823Z,15
2016-08-11T12:39:11.827Z,15
2016-08-11T12:40:11.855Z,15
2016-08-11T12:41:12.600Z,15
2016-08-11T12:42:12.625Z,15
2016-08-11T12:43:12.644Z,15
2016-08-11T12:44:11.967Z,15
2016-08-11T12:45:12.000Z,15
2016-08-11T12:46:12.011Z,15
2016-08-11T12:47:12.752Z,15
2016-08-11T12:48:12.069Z,15
2016-08-11T12:49:12.104Z,15
2016-08-11T12:50:12.145Z,15
2016-08-11T12:51:12.867Z,15
2016-08-11T12:52:12.182Z,15
2016-08-11T12:53:12.210Z,15
2016-08-11T12:54:12.228Z,10
2016-08-11T12:55:12.270Z,5
2016-08-11T12:56:12.288Z,5
2016-08-11T12:57:12.325Z,5
2016-08-11T12:58:12.361Z,5
2016-08-11T12:59:13.083Z,5
2016-08-11T13:00:13.104Z,5
2016-08-11T13:01:13.136Z,5
2016-08-11T13:02:12.473Z,5
2016-08-11T13:03:12.496Z,5
2016-08-11T13:04:12.502Z,5
2016-08-11T13:05:12.540Z,5
2016-08-11T13:06:13.279Z,5
2016-08-11T13:07:12.581Z,5
2016-08-11T13:08:12.620Z,5
2016-08-11T13:09:12.657Z,5
2016-08-11T13:10:12.665Z,5
2016-08-11T13:11:12.714Z,5
2016-08-11T13:12:12.723Z,5
2016-08-11T13:13:13.467Z,5
2016-08-11T13:14:12.784Z,10
2016-08-11T13:15:12.835Z,15
2016-08-11T13:16:12.832Z,15
2016-08-11T13:17:12.871Z,15
2016-08-11T13:18:12.884Z,10
2016-08-11T13:19:13.625Z,15
2016-08-11T13:20:13.654Z,5
2016-08-11T13:21:13.684Z,5
2016-08-11T13:22:13.000Z,5
2016-08-11T13:23:13.019Z,5
2016-08-11T13:24:13.763Z,15
2016-08-11T13:25:13.787Z,15
2016-08-11T13:26:13.124Z,15
2016-08-11T13:27:13.136Z,15
2016-08-11T13:28:13.155Z,15
2016-08-11T13:29:13.190Z,10
2016-08-11T13:30:13.217Z,10
2016-08-11T13:31:13.948Z,5
2016-08-11T13:32:13.265Z,15
2016-08-11T13:33:13.288Z,10
2016-08-11T13:34:13.341Z,10
2016-08-11T13:35:13.354Z,10
2016-08-11T13:36:13.369Z,10
2016-08-11T13:37:13.417Z,10
2016-08-11T13:38:13.438Z,10
2016-08-11T13:39:13.451Z,10
2016-08-11T13:40:13.488Z,10
2016-08-11T13:41:13.505Z,10
2016-08-11T13:42:13.558Z,10
2016-08-11T13:43:13.561Z,10
2016-08-11T13:44:13.590Z,10
2016-08-11T13:45:13.619Z,10
2016-08-11T13:46:13.646Z,10
2016-08-11T13:47:14.382Z,10
2016-08-11T13:48:13.703Z,10
2016-08-11T13:49:14.438Z,10
2016-08-11T13:50:14.465Z,5
2016-08-11T13:51:13.782Z,10
2016-08-11T13:52:14.696Z,10
2016-08-11T13:53:13.846Z,10
2016-08-11T13:54:15.289Z,5
2016-08-11T13:55:13.894Z,10
2016-08-11T13:56:14.652Z,10
2016-08-11T13:57:13.951Z,5
2016-08-11T13:58:13.996Z,10
2016-08-11T13:59:13.999Z,5
2016-08-11T14:00:14.764Z,10
2016-08-11T14:01:14.775Z,5
2016-08-11T14:02:14.088Z,5
2016-08-11T14:03:14.116Z,10
2016-08-11T14:04:14.145Z,10
2016-08-11T14:05:14.193Z,10
2016-08-11T14:06:14.909Z,10
2016-08-11T14:07:14.222Z,10
2016-08-11T14:08:14.961Z,10
2016-08-11T14:09:14.283Z,10
2016-08-11T14:10:14.306Z,10
2016-08-11T14:11:15.047Z,10
2016-08-11T14:12:14.397Z,0
2016-08-11T14:13:14.413Z,0
2016-08-11T14:14:14.425Z,10
2016-08-11T14:15:14.445Z,5
2016-08-11T14:16:15.215Z,10
2016-08-11T14:17:14.504Z,10
2016-08-11T14:18:15.249Z,10
2016-08-11T14:19:15.286Z,10
2016-08-11T14:20:14.607Z,10
2016-08-11T14:21:15.319Z,10
2016-08-11T14:22:14.642Z,10
2016-08-11T14:23:14.670Z,10
2016-08-11T14:24:14.700Z,10
2016-08-11T14:25:14.727Z,10
2016-08-11T14:26:14.745Z,10
2016-08-11T14:27:16.196Z,10
2016-08-11T14:28:15.516Z,10
2016-08-11T14:29:14.841Z,10
2016-08-11T14:30:14.861Z,10
2016-08-11T14:31:15.597Z,10
2016-08-11T14:32:15.792Z,5
2016-08-11T14:33:14.942Z,5
2016-08-11T14:34:14.970Z,5
2016-08-11T14:35:15.708Z,5
2016-08-11T14:36:15.040Z,5
2016-08-11T14:37:15.059Z,5
2016-08-11T14:38:15.082Z,5
2016-08-11T14:39:15.110Z,5
2016-08-11T14:40:15.139Z,5
2016-08-11T14:41:15.164Z,5
2016-08-11T14:42:15.900Z,5
2016-08-11T14:43:15.221Z,5
2016-08-11T14:44:15.257Z,5